createdAt,value
2023-01-19T00:01:36.821Z,94651.13
2023-01-19T00:04:03.272Z,94656.00
2023-01-19T00:06:29.846Z,94651.88
2023-01-19T00:08:56.273Z,94656.69
2023-01-19T00:11:22.963Z,94660.91
2023-01-19T00:13:53.561Z,94656.69
2023-01-19T00:16:22.916Z,94666.16
2023-01-19T00:18:50.808Z,94667.00
2023-01-19T00:21:17.562Z,94666.13
2023-01-19T00:23:47.194Z,94665.47
2023-01-19T00:26:16.116Z,94673.97
2023-01-19T00:28:45.601Z,94671.50
2023-01-19T00:31:12.421Z,94679.81
2023-01-19T00:33:38.929Z,94668.00
2023-01-19T00:36:05.498Z,94673.13
2023-01-19T00:38:32.111Z,94673.94
2023-01-19T00:40:58.591Z,94667.91
2023-01-19T00:43:25.047Z,94673.88
2023-01-19T00:45:51.541Z,94682.41
2023-01-19T00:48:18.009Z,94682.38
2023-01-19T00:50:44.571Z,94675.56
2023-01-19T00:53:11.110Z,94674.75
2023-01-19T00:55:37.532Z,94673.13
2023-01-19T00:58:03.988Z,94666.31
2023-01-19T01:00:30.829Z,94669.69
2023-01-19T01:02:57.700Z,94674.84
2023-01-19T01:05:24.269Z,94678.38
2023-01-19T01:07:50.820Z,94675.94
2023-01-19T01:10:20.046Z,94677.72
2023-01-19T01:13:19.843Z,94675.16
2023-01-19T01:15:32.875Z,94672.53
2023-01-19T01:17:59.305Z,94672.53
2023-01-19T01:20:27.768Z,94687.91
2023-01-19T01:22:54.663Z,94688.66
2023-01-19T01:25:22.814Z,94688.59
2023-01-19T01:27:49.329Z,94688.66
2023-01-19T01:30:15.803Z,94686.97
2023-01-19T01:32:43.746Z,94693.81
2023-01-19T01:35:10.976Z,94697.34
2023-01-19T01:37:37.663Z,94691.44
2023-01-19T01:40:04.864Z,94688.00
2023-01-19T01:42:32.300Z,94694.78
2023-01-19T01:45:00.912Z,94687.19
2023-01-19T01:47:30.308Z,94683.00
2023-01-19T01:50:00.497Z,94692.41
2023-01-19T01:52:28.172Z,94685.56
2023-01-19T01:54:55.050Z,94687.28
2023-01-19T01:57:23.082Z,94690.59
2023-01-19T01:59:50.650Z,94695.97
2023-01-19T02:02:41.977Z,94697.63
2023-01-19T02:05:11.017Z,94690.81
2023-01-19T02:07:59.273Z,94689.91
2023-01-19T02:10:44.291Z,94690.78
2023-01-19T02:13:23.006Z,94684.94
2023-01-19T02:15:57.839Z,94686.50
2023-01-19T02:18:27.071Z,94693.31
2023-01-19T02:20:59.652Z,94689.09
2023-01-19T02:23:31.834Z,94694.19
2023-01-19T02:25:59.786Z,94700.09
2023-01-19T02:28:26.810Z,94698.41
2023-01-19T02:30:53.427Z,94699.28
2023-01-19T02:33:19.883Z,94706.09
2023-01-19T02:35:47.379Z,94695.75
2023-01-19T02:38:14.617Z,94701.88
2023-01-19T02:40:42.575Z,94696.84
2023-01-19T02:43:09.261Z,94701.00
2023-01-19T02:45:36.791Z,94708.69
2023-01-19T02:48:04.827Z,94706.16
2023-01-19T02:50:46.060Z,94706.19
2023-01-19T02:53:29.986Z,94704.47
2023-01-19T02:56:24.914Z,94700.22
2023-01-19T02:59:00.593Z,94703.56
2023-01-19T03:01:38.743Z,94714.44
2023-01-19T03:04:14.556Z,94706.09
2023-01-19T03:06:44.802Z,94712.13
2023-01-19T03:09:15.293Z,94716.34
2023-01-19T03:11:46.218Z,94713.81
2023-01-19T03:14:14.868Z,94709.56
2023-01-19T03:16:43.885Z,94707.84
2023-01-19T03:19:13.055Z,94704.47
2023-01-19T03:21:43.013Z,94707.03
2023-01-19T03:24:11.323Z,94713.81
2023-01-19T03:26:41.987Z,94707.88
2023-01-19T03:29:10.170Z,94716.34
2023-01-19T03:31:37.080Z,94715.53
2023-01-19T03:34:06.632Z,94712.09
2023-01-19T03:36:36.020Z,94712.09
2023-01-19T03:39:04.376Z,94710.41
2023-01-19T03:41:32.435Z,94713.75
2023-01-19T03:43:59.075Z,94714.63
2023-01-19T03:46:26.197Z,94719.69
2023-01-19T03:48:53.023Z,94725.72
2023-01-19T03:51:19.521Z,94714.59
2023-01-19T03:53:46.683Z,94723.00
2023-01-19T03:56:20.608Z,94729.69
2023-01-19T03:58:47.081Z,94721.41
2023-01-19T04:01:14.889Z,94715.53
2023-01-19T04:03:42.126Z,94716.31
2023-01-19T04:06:09.458Z,94717.91
2023-01-19T04:08:36.515Z,94720.56
2023-01-19T04:11:03.056Z,94724.84
2023-01-19T04:13:31.448Z,94712.94
2023-01-19T04:16:01.371Z,94716.31
2023-01-19T04:18:28.558Z,94716.38
2023-01-19T04:20:55.420Z,94719.72
2023-01-19T04:23:21.937Z,94736.41
2023-01-19T04:25:48.414Z,94727.13
2023-01-19T04:28:15.634Z,94712.09
2023-01-19T04:30:42.176Z,94714.66
2023-01-19T04:33:08.936Z,94721.44
2023-01-19T04:35:35.739Z,94722.31
2023-01-19T04:38:02.202Z,94729.06
2023-01-19T04:40:28.608Z,94728.25
2023-01-19T04:42:55.031Z,94729.09
2023-01-19T04:45:21.704Z,94723.09
2023-01-19T04:47:48.205Z,94722.31
2023-01-19T04:50:15.236Z,94725.72
2023-01-19T04:52:41.880Z,94726.53
2023-01-19T04:55:08.557Z,94729.09
2023-01-19T04:57:35.207Z,94721.47
2023-01-19T05:00:01.693Z,94729.09
2023-01-19T05:02:28.205Z,94728.25
2023-01-19T05:04:54.789Z,94729.06
2023-01-19T05:07:21.284Z,94739.28
2023-01-19T05:09:47.732Z,94728.25
2023-01-19T05:12:14.175Z,94734.19
2023-01-19T05:14:40.646Z,94740.16
2023-01-19T05:17:07.190Z,94739.28
2023-01-19T05:19:33.610Z,94741.00
2023-01-19T05:22:00.050Z,94740.97
2023-01-19T05:24:26.500Z,94740.84
2023-01-19T05:26:52.906Z,94745.25
2023-01-19T05:29:19.333Z,94745.13
2023-01-19T05:31:45.884Z,94755.06
2023-01-19T05:34:12.590Z,94755.28
2023-01-19T05:36:39.086Z,94743.56
2023-01-19T05:39:05.498Z,94755.38
2023-01-19T05:41:31.933Z,94748.66
2023-01-19T05:43:58.350Z,94746.13
2023-01-19T05:46:25.158Z,94757.06
2023-01-19T05:48:51.675Z,94757.13
2023-01-19T05:51:18.221Z,94766.47
2023-01-19T05:53:44.687Z,94767.34
2023-01-19T05:56:11.331Z,94763.09
2023-01-19T05:58:39.397Z,94768.19
2023-01-19T06:01:06.945Z,94767.34
2023-01-19T06:03:33.937Z,94767.34
2023-01-19T06:06:00.915Z,94770.75
2023-01-19T06:08:27.682Z,94776.69
2023-01-19T06:10:54.111Z,94782.63
2023-01-19T06:13:21.271Z,94786.88
2023-01-19T06:15:48.071Z,94783.47
2023-01-19T06:18:17.419Z,94784.25
2023-01-19T06:20:43.861Z,94787.53
2023-01-19T06:23:10.912Z,94782.50
2023-01-19T06:25:37.417Z,94782.53
2023-01-19T06:28:04.024Z,94794.16
2023-01-19T06:30:30.440Z,94805.31
2023-01-19T06:32:56.848Z,94801.34
2023-01-19T06:35:23.304Z,94809.81
2023-01-19T06:37:49.787Z,94803.00
2023-01-19T06:40:16.324Z,94805.56
2023-01-19T06:42:42.894Z,94807.22
2023-01-19T06:45:10.088Z,94808.91
2023-01-19T06:47:36.536Z,94809.78
2023-01-19T06:50:03.440Z,94810.63
2023-01-19T06:52:29.860Z,94821.63
2023-01-19T06:54:56.754Z,94815.72
2023-01-19T06:57:23.292Z,94808.88
2023-01-19T06:59:49.740Z,94810.59
2023-01-19T07:02:26.336Z,94818.16
2023-01-19T07:04:54.558Z,94816.53
2023-01-19T07:07:21.024Z,94826.69
2023-01-19T07:09:48.100Z,94824.97
2023-01-19T07:12:14.601Z,94827.53
2023-01-19T07:14:41.157Z,94833.09
2023-01-19T07:17:07.790Z,94827.09
2023-01-19T07:19:35.312Z,94824.31
2023-01-19T07:22:03.202Z,94834.69
2023-01-19T07:24:30.606Z,94828.88
2023-01-19T07:26:57.024Z,94833.88
2023-01-19T07:29:23.442Z,94833.72
2023-01-19T07:31:50.131Z,94829.13
2023-01-19T07:34:16.898Z,94829.34
2023-01-19T07:36:44.071Z,94841.53
2023-01-19T07:39:10.486Z,94836.31
2023-01-19T07:41:36.906Z,94837.06
2023-01-19T07:44:06.329Z,94835.66
2023-01-19T07:46:32.859Z,94833.41
2023-01-19T07:48:59.287Z,94841.06
2023-01-19T07:51:25.935Z,94838.44
2023-01-19T07:53:52.483Z,94835.78
2023-01-19T07:56:18.978Z,94836.53
2023-01-19T07:58:45.410Z,94834.84
2023-01-19T08:01:13.223Z,94840.47
2023-01-19T08:03:39.890Z,94848.44
2023-01-19T08:06:06.804Z,94843.50
2023-01-19T08:08:33.754Z,94839.78
2023-01-19T08:11:00.240Z,94843.03
2023-01-19T08:13:26.710Z,94848.41
2023-01-19T08:15:53.787Z,94847.69
2023-01-19T08:18:20.489Z,94844.81
2023-01-19T08:20:47.214Z,94858.06
2023-01-19T08:23:13.733Z,94848.84
2023-01-19T08:25:45.224Z,94857.31
2023-01-19T08:28:13.024Z,94856.47
2023-01-19T08:30:40.449Z,94856.56
2023-01-19T08:33:08.295Z,94857.72
2023-01-19T08:35:39.895Z,94863.00
2023-01-19T08:38:07.192Z,94858.69
2023-01-19T08:40:35.600Z,94862.03
2023-01-19T08:43:07.680Z,94867.34
2023-01-19T08:45:37.948Z,94863.78
2023-01-19T08:48:04.535Z,94867.31
2023-01-19T08:50:32.452Z,94866.50
2023-01-19T08:53:00.155Z,94861.53
2023-01-19T08:55:27.441Z,94862.13
2023-01-19T08:57:54.529Z,94867.97
2023-01-19T09:00:21.103Z,94860.22
2023-01-19T09:02:48.116Z,94867.09
2023-01-19T09:05:14.915Z,94862.09
2023-01-19T09:07:41.687Z,94865.50
2023-01-19T09:10:08.551Z,94865.47
2023-01-19T09:12:34.942Z,94877.56
2023-01-19T09:15:01.427Z,94876.66
2023-01-19T09:17:27.970Z,94880.91
2023-01-19T09:19:54.399Z,94882.78
2023-01-19T09:22:20.954Z,94881.06
2023-01-19T09:24:47.502Z,94884.41
2023-01-19T09:27:14.137Z,94880.13
2023-01-19T09:29:40.542Z,94880.16
2023-01-19T09:32:07.203Z,94890.34
2023-01-19T09:34:33.742Z,94906.59
2023-01-19T09:37:00.161Z,94891.22
2023-01-19T09:39:27.079Z,94899.78
2023-01-19T09:42:02.669Z,94897.25
2023-01-19T09:44:32.045Z,94900.66
2023-01-19T09:46:58.914Z,94894.72
2023-01-19T09:49:25.359Z,94895.63
2023-01-19T09:51:52.036Z,94889.66
2023-01-19T09:54:20.664Z,94897.31
2023-01-19T09:56:49.888Z,94891.38
2023-01-19T09:59:20.292Z,94884.53
2023-01-19T10:01:52.842Z,94882.91
2023-01-19T10:04:31.656Z,94881.28
2023-01-19T10:07:17.156Z,94871.91
2023-01-19T10:09:53.533Z,94882.13
2023-01-19T10:12:32.198Z,94872.75
2023-01-19T10:15:04.161Z,94882.94
2023-01-19T10:17:43.494Z,94880.41
2023-01-19T10:20:17.980Z,94886.34
2023-01-19T10:22:47.363Z,94883.75
2023-01-19T10:25:15.729Z,94880.31
2023-01-19T10:27:42.842Z,94882.03
2023-01-19T10:30:15.101Z,94882.03
2023-01-19T10:32:41.574Z,94875.25
2023-01-19T10:35:21.524Z,94868.47
2023-01-19T10:37:48.235Z,94870.22
2023-01-19T10:40:41.233Z,94883.78
2023-01-19T10:43:26.668Z,94876.06
2023-01-19T10:45:53.191Z,94871.84
2023-01-19T10:48:19.751Z,94868.44
2023-01-19T10:50:46.190Z,94866.72
2023-01-19T10:53:22.563Z,94856.50
2023-01-19T10:56:09.527Z,94863.28
2023-01-19T10:58:35.955Z,94862.41
2023-01-19T11:01:14.525Z,94861.59
2023-01-19T11:03:41.034Z,94858.19
2023-01-19T11:06:13.660Z,94859.03
2023-01-19T11:08:40.099Z,94853.03
2023-01-19T11:11:08.632Z,94856.47
2023-01-19T11:13:38.866Z,94855.59
2023-01-19T11:16:06.820Z,94861.56
2023-01-19T11:18:37.462Z,94863.31
2023-01-19T11:21:08.037Z,94855.59
2023-01-19T11:23:41.852Z,94861.56
2023-01-19T11:26:28.929Z,94859.84
2023-01-19T11:28:56.314Z,94859.81
2023-01-19T11:31:29.114Z,94866.59
2023-01-19T11:33:56.947Z,94866.59
2023-01-19T11:36:25.044Z,94860.53
2023-01-19T11:38:56.003Z,94862.31
2023-01-19T11:41:25.888Z,94856.28
2023-01-19T11:43:54.381Z,94860.53
2023-01-19T11:46:23.683Z,94857.00
2023-01-19T11:48:57.316Z,94851.84
2023-01-19T11:51:27.824Z,94850.19
2023-01-19T11:53:54.303Z,94845.72
2023-01-19T11:56:23.672Z,94846.59
2023-01-19T11:58:50.139Z,94839.72
2023-01-19T12:01:29.674Z,94841.31
2023-01-19T12:04:05.012Z,94847.06
2023-01-19T12:06:34.124Z,94846.28
2023-01-19T12:09:03.013Z,94844.22
2023-01-19T12:11:35.751Z,94854.44
2023-01-19T12:14:02.516Z,94851.84
2023-01-19T12:16:30.114Z,94855.13
2023-01-19T12:19:00.491Z,94854.25
2023-01-19T12:21:26.918Z,94855.06
2023-01-19T12:24:03.364Z,94857.66
2023-01-19T12:26:35.445Z,94862.75
2023-01-19T12:29:21.889Z,94855.03
2023-01-19T12:32:08.019Z,94863.50
2023-01-19T12:34:42.290Z,94866.78
2023-01-19T12:37:30.694Z,94865.94
2023-01-19T12:39:58.759Z,94863.38
2023-01-19T12:42:26.377Z,94856.66
2023-01-19T12:45:13.456Z,94858.22
2023-01-19T12:47:40.056Z,94859.16
2023-01-19T12:50:19.109Z,94870.31
2023-01-19T12:52:51.543Z,94864.22
2023-01-19T12:55:23.139Z,94876.69
2023-01-19T12:58:03.787Z,94868.19
2023-01-19T13:00:38.529Z,94870.81
2023-01-19T13:03:17.176Z,94871.50
2023-01-19T13:05:43.571Z,94870.59
2023-01-19T13:08:10.018Z,94867.41
2023-01-19T13:10:55.241Z,94859.69
2023-01-19T13:13:26.349Z,94861.19
2023-01-19T13:15:55.778Z,94861.25
2023-01-19T13:18:33.991Z,94869.75
2023-01-19T13:21:03.348Z,94869.97
2023-01-19T13:24:05.387Z,94864.56
2023-01-19T13:26:34.617Z,94866.53
2023-01-19T13:29:07.644Z,94865.78
2023-01-19T13:31:35.231Z,94865.84
2023-01-19T13:34:02.624Z,94869.00
2023-01-19T13:36:30.719Z,94875.81
2023-01-19T13:38:59.077Z,94871.59
2023-01-19T13:41:27.362Z,94873.56
2023-01-19T13:43:58.465Z,94860.94
2023-01-19T13:46:26.353Z,94877.06
2023-01-19T13:48:55.524Z,94869.22
2023-01-19T13:51:22.007Z,94873.38
2023-01-19T13:53:55.346Z,94865.72
2023-01-19T13:56:23.727Z,94865.63
2023-01-19T13:58:57.277Z,94875.13
2023-01-19T14:01:24.047Z,94868.47
2023-01-19T14:03:52.355Z,94870.78
2023-01-19T14:06:23.121Z,94868.97
2023-01-19T14:09:05.265Z,94875.72
2023-01-19T14:11:31.732Z,94878.34
2023-01-19T14:13:58.165Z,94875.72
2023-01-19T14:16:25.084Z,94876.53
2023-01-19T14:19:02.243Z,94879.81
2023-01-19T14:21:37.487Z,94874.81
2023-01-19T14:24:17.858Z,94874.88
2023-01-19T14:26:48.357Z,94873.31
2023-01-19T14:29:32.760Z,94867.25
2023-01-19T14:32:16.178Z,94873.16
2023-01-19T14:34:42.747Z,94870.72
2023-01-19T14:37:24.575Z,94870.78
2023-01-19T14:39:54.063Z,94870.81
2023-01-19T14:42:23.618Z,94865.06
2023-01-19T14:44:51.646Z,94876.75
2023-01-19T14:47:38.168Z,94877.38
2023-01-19T14:50:07.512Z,94872.41
2023-01-19T14:52:37.171Z,94869.84
2023-01-19T14:55:06.691Z,94874.81
2023-01-19T14:57:34.176Z,94867.03
2023-01-19T15:00:00.627Z,94863.44
2023-01-19T15:02:27.737Z,94872.81
2023-01-19T15:04:55.384Z,94868.59
2023-01-19T15:07:23.755Z,94870.16
2023-01-19T15:09:50.454Z,94869.53
2023-01-19T15:12:18.369Z,94864.44
2023-01-19T15:14:45.204Z,94868.75
2023-01-19T15:17:17.373Z,94853.50
2023-01-19T15:19:43.776Z,94862.09
2023-01-19T15:22:11.389Z,94858.13
2023-01-19T15:24:39.614Z,94866.66
2023-01-19T15:27:06.119Z,94867.59
2023-01-19T15:29:32.717Z,94872.78
2023-01-19T15:31:59.127Z,94866.78
2023-01-19T15:34:25.546Z,94869.31
2023-01-19T15:36:52.284Z,94871.91
2023-01-19T15:39:18.737Z,94866.00
2023-01-19T15:41:45.399Z,94863.34
2023-01-19T15:44:11.881Z,94864.94
2023-01-19T15:46:38.811Z,94865.78
2023-01-19T15:49:08.254Z,94867.28
2023-01-19T15:51:34.683Z,94864.63
2023-01-19T15:54:01.266Z,94861.47
2023-01-19T15:56:28.813Z,94877.81
2023-01-19T15:58:55.861Z,94864.81
2023-01-19T16:01:23.477Z,94860.41
2023-01-19T16:03:50.596Z,94861.78
2023-01-19T16:06:17.918Z,94861.81
2023-01-19T16:08:44.805Z,94867.78
2023-01-19T16:11:12.759Z,94865.38
2023-01-19T16:13:39.657Z,94860.19
2023-01-19T16:16:07.973Z,94865.28
2023-01-19T16:18:34.459Z,94865.34
2023-01-19T16:21:00.991Z,94861.88
2023-01-19T16:23:27.509Z,94864.34
2023-01-19T16:25:57.762Z,94865.16
2023-01-19T16:28:24.447Z,94861.84
2023-01-19T16:30:51.710Z,94862.66
2023-01-19T16:33:18.230Z,94860.97
2023-01-19T16:35:44.970Z,94871.63
2023-01-19T16:38:11.494Z,94863.44
2023-01-19T16:40:38.040Z,94866.09
2023-01-19T16:43:04.542Z,94868.41
2023-01-19T16:45:31.019Z,94868.44
2023-01-19T16:47:57.481Z,94871.16
2023-01-19T16:50:23.902Z,94864.53
2023-01-19T16:52:50.641Z,94860.22
2023-01-19T16:55:17.436Z,94866.19
2023-01-19T16:57:44.152Z,94865.38
2023-01-19T17:00:11.131Z,94867.91
2023-01-19T17:02:37.834Z,94874.44
2023-01-19T17:05:04.484Z,94867.75
2023-01-19T17:07:31.177Z,94868.59
2023-01-19T17:09:57.771Z,94867.84
2023-01-19T17:12:24.168Z,94865.28
2023-01-19T17:14:50.668Z,94870.63
2023-01-19T17:17:17.073Z,94861.84
2023-01-19T17:19:45.064Z,94865.88
2023-01-19T17:22:12.812Z,94860.63
2023-01-19T17:24:43.244Z,94865.03
2023-01-19T17:27:09.955Z,94863.25
2023-01-19T17:29:36.408Z,94860.06
2023-01-19T17:32:02.866Z,94863.44
2023-01-19T17:34:29.345Z,94859.94
2023-01-19T17:37:02.672Z,94861.75
2023-01-19T17:39:29.622Z,94865.94
2023-01-19T17:41:56.023Z,94858.59
2023-01-19T17:44:22.902Z,94861.22
2023-01-19T17:46:49.430Z,94860.09
2023-01-19T17:49:15.925Z,94866.03
2023-01-19T17:51:42.339Z,94864.53
2023-01-19T17:54:10.672Z,94861.03
2023-01-19T17:56:38.568Z,94867.00
2023-01-19T17:59:06.557Z,94872.66
2023-01-19T18:01:33.910Z,94868.78
2023-01-19T18:04:02.525Z,94864.50
2023-01-19T18:06:29.054Z,94868.78
2023-01-19T18:08:56.513Z,94868.78
2023-01-19T18:11:22.975Z,94864.44
2023-01-19T18:13:50.055Z,94872.34
2023-01-19T18:16:18.082Z,94869.75
2023-01-19T18:18:44.503Z,94868.94
2023-01-19T18:21:12.515Z,94871.31
2023-01-19T18:23:39.104Z,94872.91
2023-01-19T18:26:16.327Z,94866.94
2023-01-19T18:28:43.066Z,94873.88
2023-01-19T18:31:10.455Z,94871.84
2023-01-19T18:33:37.635Z,94869.94
2023-01-19T18:36:04.625Z,94868.13
2023-01-19T18:38:31.398Z,94872.31
2023-01-19T18:41:00.573Z,94877.47
2023-01-19T18:43:26.979Z,94873.22
2023-01-19T18:45:53.478Z,94870.66
2023-01-19T18:48:19.921Z,94868.84
2023-01-19T18:50:46.394Z,94868.03
2023-01-19T18:53:13.289Z,94865.66
2023-01-19T18:55:39.739Z,94861.34
2023-01-19T18:58:07.076Z,94868.94
2023-01-19T19:00:33.601Z,94858.78
2023-01-19T19:02:59.990Z,94862.34
2023-01-19T19:05:26.454Z,94861.34
2023-01-19T19:07:52.880Z,94861.34
2023-01-19T19:10:19.347Z,94873.31
2023-01-19T19:12:45.795Z,94867.38
2023-01-19T19:15:12.410Z,94865.00
2023-01-19T19:17:38.848Z,94860.75
2023-01-19T19:20:05.473Z,94867.59
2023-01-19T19:22:31.905Z,94865.91
2023-01-19T19:24:58.355Z,94869.31
2023-01-19T19:27:24.857Z,94866.59
2023-01-19T19:29:51.516Z,94860.75
2023-01-19T19:32:20.433Z,94867.63
2023-01-19T19:34:52.500Z,94868.41
2023-01-19T19:37:19.481Z,94870.00
2023-01-19T19:39:47.345Z,94872.56
2023-01-19T19:42:13.793Z,94874.34
2023-01-19T19:44:40.287Z,94869.97
2023-01-19T19:47:06.779Z,94875.09
2023-01-19T19:49:33.386Z,94873.44
2023-01-19T19:51:59.871Z,94869.16
2023-01-19T19:54:26.325Z,94868.28
2023-01-19T19:56:53.578Z,94878.38
2023-01-19T19:59:20.005Z,94877.53
2023-01-19T20:01:47.175Z,94880.16
2023-01-19T20:04:13.695Z,94882.69
2023-01-19T20:06:41.698Z,94889.44
2023-01-19T20:09:08.979Z,94878.44
2023-01-19T20:11:35.872Z,94887.00
2023-01-19T20:14:05.834Z,94882.81
2023-01-19T20:16:32.462Z,94889.66
2023-01-19T20:18:58.876Z,94889.56
2023-01-19T20:21:26.564Z,94893.84
2023-01-19T20:23:53.808Z,94891.44
2023-01-19T20:26:23.192Z,94890.41
2023-01-19T20:28:49.792Z,94892.91
2023-01-19T20:31:16.292Z,94892.97
2023-01-19T20:33:43.038Z,94889.81
2023-01-19T20:36:10.441Z,94898.28
2023-01-19T20:38:37.641Z,94899.94
2023-01-19T20:41:04.191Z,94906.75
2023-01-19T20:43:30.835Z,94897.47
2023-01-19T20:45:57.602Z,94899.13
2023-01-19T20:48:24.040Z,94899.13
2023-01-19T20:50:50.610Z,94907.63
2023-01-19T20:53:17.382Z,94907.06
2023-01-19T20:55:43.799Z,94912.03
2023-01-19T20:58:25.996Z,94910.22
2023-01-19T21:00:52.476Z,94914.47
2023-01-19T21:03:18.967Z,94917.00
2023-01-19T21:05:46.622Z,94918.13
2023-01-19T21:08:14.682Z,94924.06
2023-01-19T21:10:41.596Z,94933.25
2023-01-19T21:13:07.966Z,94933.28
2023-01-19T21:15:34.692Z,94930.88
2023-01-19T21:18:01.805Z,94931.53
2023-01-19T21:20:31.579Z,94930.78
2023-01-19T21:22:58.961Z,94927.31
2023-01-19T21:25:25.449Z,94935.69
2023-01-19T21:27:52.076Z,94939.88
2023-01-19T21:30:18.640Z,94939.91
2023-01-19T21:32:45.053Z,94928.03
2023-01-19T21:35:11.770Z,94937.53
2023-01-19T21:37:38.401Z,94934.16
2023-01-19T21:40:05.185Z,94936.81
2023-01-19T21:42:31.611Z,94934.03
2023-01-19T21:44:58.343Z,94935.03
2023-01-19T21:47:24.888Z,94940.31
2023-01-19T21:49:51.316Z,94930.72
2023-01-19T21:52:17.850Z,94934.06
2023-01-19T21:54:44.281Z,94940.13
2023-01-19T21:57:10.698Z,94930.56
2023-01-19T21:59:37.105Z,94934.00
2023-01-19T22:02:03.755Z,94937.34
2023-01-19T22:04:30.278Z,94934.88
2023-01-19T22:06:56.688Z,94938.28
2023-01-19T22:09:23.106Z,94935.63
2023-01-19T22:11:49.528Z,94941.59
2023-01-19T22:14:15.989Z,94951.84
2023-01-19T22:16:42.453Z,94937.66
2023-01-19T22:19:12.552Z,94943.94
2023-01-19T22:21:39.638Z,94938.66
2023-01-19T22:24:06.324Z,94939.56
2023-01-19T22:26:34.211Z,94938.66
2023-01-19T22:29:01.427Z,94947.28
2023-01-19T22:31:29.025Z,94948.81
2023-01-19T22:33:55.591Z,94948.88
2023-01-19T22:36:23.304Z,94948.88
2023-01-19T22:38:53.275Z,94951.53
2023-01-19T22:41:21.426Z,94945.69
2023-01-19T22:43:48.340Z,94944.13
2023-01-19T22:46:22.495Z,94946.66
2023-01-19T22:48:49.552Z,94944.75
2023-01-19T22:51:16.889Z,94952.25
2023-01-19T22:53:43.326Z,94953.91
2023-01-19T22:56:30.131Z,94958.28
2023-01-19T22:58:56.804Z,94953.31
2023-01-19T23:01:24.702Z,94953.97
2023-01-19T23:03:51.636Z,94963.19
2023-01-19T23:06:19.104Z,94957.84
2023-01-19T23:08:45.900Z,94969.78
2023-01-19T23:11:14.708Z,94962.91
2023-01-19T23:13:41.474Z,94972.28
2023-01-19T23:16:08.501Z,94968.19
2023-01-19T23:18:34.884Z,94964.69
2023-01-19T23:21:09.150Z,94957.94
2023-01-19T23:23:36.008Z,94958.91
2023-01-19T23:26:03.645Z,94963.19
2023-01-19T23:28:30.271Z,94968.31
2023-01-19T23:30:56.885Z,94975.09
2023-01-19T23:33:23.442Z,94979.34
2023-01-19T23:35:49.867Z,94971.69
2023-01-19T23:38:16.290Z,94977.59
2023-01-19T23:40:42.726Z,94971.56
2023-01-19T23:43:09.117Z,94971.50
2023-01-19T23:45:35.620Z,94977.53
2023-01-19T23:48:03.749Z,94984.31
2023-01-19T23:50:30.425Z,94978.41
2023-01-19T23:52:56.839Z,94981.09
2023-01-19T23:55:23.290Z,94988.09
2023-01-19T23:57:49.700Z,94995.63
